EGNREGNX

Guest
Details From EGNR - Hawarden
To EGNX - East Midlands
Flight Number -
Tags generated
Created
Modified
Stats Distance 63 nm / 117 km
Max Altitude 7,100 ft / 2,164 m
Waypoints 3
Social Downloads 1
Likes 0
Share VATSIM

Download

Looking for another format? Having issues loading an existing format? Contact us
Advertisement - Login to hide

Notes

Basic altitude profile: - Ascent Rate: 500ft/min - Ascent Speed: 74kts - Cruise Altitude: 6000ft - Cruise Speed: 100kts - Descent Rate: 500ft/min - Descent Speed: 80kts Options: - Use NATs: yes - Use PACOTS: yes - Use low airways: yes - Use high airways: no

Route

EGNR WAL41 EGNX

ID Type Via Altitude Latitude Longitude Leg Dist Tot Dist Heading (true) Name
O EGNR APT - 0 ft / 0 m 53.17813˚ -2.97766˚ - 0 nm - Hawarden
WAL41 FIX - 7,100 ft / 2,164 m 52.97583˚ -2.21306˚ 30 nm 30 nm 113° / 114° -
O EGNX APT - 0 ft / 0 m 52.83100˚ -1.32815˚ 33 nm 63 nm 105° / 106° East Midlands

Altitude Profile

Advertisement - Login to hide

EGNR

Details ICAO EGNR (CEG)
Name Hawarden
Region United Kingdom
Timezone Europe/London (UTC+1.0)
Stats Elevation 45 ft / 14 m (AMSL)
Location 53.178130° -2.977664°
Runways 1
Magnetic Variation 1.630° W

METAR

EGNR 251450Z 35006KT 8000 VCSH BKN014 OVC036 14/13 Q1020

Decode

TAF

Not found

Departure Runways

ID Width Length Bearing (true) Bearing (mag) Surface Threshold Offset Overrun Length
05 148 ft / 45 m 6,680 ft / 2,036 m 40.93° 42.56° Asphalt 984 ft / 300 m 0 ft / 0 m
23 148 ft / 45 m 6,680 ft / 2,036 m 220.94° 222.57° Asphalt 984 ft / 300 m 0 ft / 0 m

EGNX

Details ICAO EGNX (EMA)
Name East Midlands
Region United Kingdom
Timezone Europe/London (UTC+1.0)
Stats Elevation 306 ft / 93 m (AMSL)
Location 52.830999° -1.328155°
Runways 1
Magnetic Variation 0.966° W

METAR

EGNX 251450Z 05010KT 2000 BR BKN003 13/13 Q1019

Decode

TAF

TAF EGNX 251102Z 2512/2612 02009KT 5000 -RA BKN006 PROB40 TEMPO 2512/2515 4000 BR BKN004 BECMG 2515/2518 9999 NSW FEW010 SCT020 PROB40 TEMPO 2518/2621 8000 BKN014 BECMG 2521/2524 3000 BR BKN003 TEMPO 2523/2607 1200 BKN001 BECMG 2609/2612 9999 NSW SCT025

Decode

Destination Runways

ID Width Length Bearing (true) Bearing (mag) Surface Threshold Offset Overrun Length
09 151 ft / 46 m 9,462 ft / 2,884 m 88.25° 89.22° Asphalt 587 ft / 179 m 92 ft / 28 m
27 151 ft / 46 m 9,462 ft / 2,884 m 268.29° 269.26° Asphalt 423 ft / 129 m 98 ft / 30 m

Approach Navaids

Runway Type Ident Frequency Range Bearing (true) Bearing (mag) Slope Elevation
09 Localiser IEMW 109.35 MHz 18 nm / 33 km 88.30° 89.26° - 306 ft / 93 m (AMSL)
09 Glidescope IEMW 109.35 MHz 10 nm / 19 km 88.27° 89.24° 3.00° 306 ft / 93 m (AMSL)
09 DME IEMW 109.35 MHz 18 nm / 33 km - - - 322 ft / 98 m (AMSL)
27 Localiser IEME 109.35 MHz 18 nm / 33 km 268.25° 269.21° - 306 ft / 93 m (AMSL)
27 Glidescope IEME 109.35 MHz 10 nm / 19 km 268.27° 269.24° 3.00° 306 ft / 93 m (AMSL)
27 DME IEME 109.35 MHz 18 nm / 33 km - - - 322 ft / 98 m (AMSL)